Time;durP1;ratioP1;P1;durP2;ratioP2;P2;SDS_P1;SDS_P2;PMS_P1;PMS_P2;Temp;Humidity;BMP_temperature;BMP_pressure;BME280_temperature;BME280_humidity;BME280_pressure;Samples;Min_cycle;Max_cycle;Signal;HPM_P1;HPM_P2
2024/02/20 00:02:08;;;;;;;4.82;3.47;;;;;;;;;;5001392;28;20074;-89
2024/02/20 00:04:36;;;;;;;8.80;3.85;;;;;;;;;;5001571;28;20050;-89
2024/02/20 00:07:04;;;;;;;4.07;3.40;;;;;;;;;;5000957;28;20089;-89
2024/02/20 00:09:31;;;;;;;8.07;4.75;;;;;;;;;;5001398;28;20487;-89
2024/02/20 00:11:59;;;;;;;5.50;4.60;;;;;;;;;;5001221;28;20108;-89
2024/02/20 00:14:27;;;;;;;5.25;4.50;;;;;;;;;;5006010;28;20049;-89
2024/02/20 00:16:55;;;;;;;10.38;4.00;;;;;;;;;;5004586;28;20100;-89
2024/02/20 00:19:22;;;;;;;5.97;3.55;;;;;;;;;;5008660;28;20081;-89
2024/02/20 00:21:49;;;;;;;6.95;4.07;;;;;;;;;;5001288;28;20061;-88
2024/02/20 00:24:17;;;;;;;5.15;2.55;;;;;;;;;;5001028;28;20058;-89
2024/02/20 00:26:44;;;;;;;5.60;3.00;;;;;;;;;;5007574;28;20057;-89
2024/02/20 00:29:12;;;;;;;6.18;2.70;;;;;;;;;;5012199;28;20053;-89
2024/02/20 00:31:39;;;;;;;4.15;3.20;;;;;;;;;;5006350;28;20054;-89
2024/02/20 00:34:07;;;;;;;5.15;3.33;;;;;;;;;;5007683;28;20074;-89
2024/02/20 00:36:34;;;;;;;5.22;3.50;;;;;;;;;;5001191;28;20061;-90
2024/02/20 00:39:03;;;;;;;6.65;3.15;;;;;;;;;;5003042;28;20105;-91
2024/02/20 00:41:31;;;;;;;6.63;3.70;;;;;;;;;;5004866;28;20054;-89
2024/02/20 00:43:58;;;;;;;4.60;3.90;;;;;;;;;;5005230;28;20443;-89
2024/02/20 00:46:26;;;;;;;4.90;3.63;;;;;;;;;;5004918;28;20117;-90
2024/02/20 00:48:55;;;;;;;4.32;3.20;;;;;;;;;;5004953;28;20054;-89
2024/02/20 00:51:22;;;;;;;8.02;3.72;;;;;;;;;;5004766;28;20050;-90
2024/02/20 00:53:50;;;;;;;9.27;4.00;;;;;;;;;;5005005;28;20058;-90
2024/02/20 00:56:18;;;;;;;8.23;4.40;;;;;;;;;;5004962;28;20503;-89
2024/02/20 00:58:45;;;;;;;5.90;4.00;;;;;;;;;;5011732;28;20073;-88
2024/02/20 01:01:13;;;;;;;7.35;4.72;;;;;;;;;;5008050;28;20092;-90
2024/02/20 01:03:42;;;;;;;5.05;4.07;;;;;;;;;;5009683;28;20069;-89
2024/02/20 01:06:13;;;;;;;3.80;3.47;;;;;;;;;;5007015;28;20054;-89
2024/02/20 01:08:41;;;;;;;8.07;3.90;;;;;;;;;;5015798;28;20065;-89
2024/02/20 01:11:08;;;;;;;6.05;4.22;;;;;;;;;;5021190;28;20078;-89
2024/02/20 01:13:36;;;;;;;6.80;3.72;;;;;;;;;;5012611;28;20458;-89
2024/02/20 01:16:03;;;;;;;7.70;4.03;;;;;;;;;;5004405;28;20121;-90
2024/02/20 01:18:30;;;;;;;6.53;3.90;;;;;;;;;;5003813;28;20042;-89
2024/02/20 01:20:57;;;;;;;5.20;3.40;;;;;;;;;;5004388;28;20154;-89
2024/02/20 01:23:25;;;;;;;6.07;3.65;;;;;;;;;;5004551;28;20073;-89
2024/02/20 01:25:52;;;;;;;4.18;3.60;;;;;;;;;;5004464;28;20057;-89
2024/02/20 01:28:19;;;;;;;3.35;3.05;;;;;;;;;;5004345;28;20084;-89
2024/02/20 01:30:47;;;;;;;3.00;2.70;;;;;;;;;;5003907;28;20493;-89
2024/02/20 01:33:15;;;;;;;3.55;3.22;;;;;;;;;;5003983;28;20101;-89
2024/02/20 01:35:43;;;;;;;6.18;3.42;;;;;;;;;;5010950;28;20141;-89
2024/02/20 01:38:11;;;;;;;7.03;3.53;;;;;;;;;;5007419;28;20104;-89
2024/02/20 01:40:38;;;;;;;7.45;3.13;;;;;;;;;;5009529;28;20077;-89
2024/02/20 01:43:06;;;;;;;4.28;3.17;;;;;;;;;;5011214;28;20085;-89
2024/02/20 01:45:37;;;;;;;6.45;3.17;;;;;;;;;;5003975;28;20050;-89
2024/02/20 01:48:04;;;;;;;5.05;3.13;;;;;;;;;;5004424;28;20137;-89
2024/02/20 01:50:34;;;;;;;6.28;3.65;;;;;;;;;;5003791;28;20050;-89
2024/02/20 01:53:02;;;;;;;4.88;3.75;;;;;;;;;;5013243;28;20594;-89
2024/02/20 01:55:30;;;;;;;3.60;2.75;;;;;;;;;;5009191;28;20054;-90
2024/02/20 01:57:57;;;;;;;6.75;3.80;;;;;;;;;;5006908;28;20112;-89
2024/02/20 02:00:25;;;;;;;3.40;3.10;;;;;;;;;;5011641;28;20051;-89
2024/02/20 02:02:52;;;;;;;6.72;3.70;;;;;;;;;;5003672;28;20056;-89
2024/02/20 02:05:20;;;;;;;6.35;3.03;;;;;;;;;;5003688;28;20093;-89
2024/02/20 02:07:50;;;;;;;4.63;3.22;;;;;;;;;;5010459;28;20053;-89
2024/02/20 02:10:18;;;;;;;5.30;3.90;;;;;;;;;;5003731;28;20096;-90
2024/02/20 02:12:45;;;;;;;3.50;3.20;;;;;;;;;;5010464;28;20050;-89
2024/02/20 02:15:13;;;;;;;4.60;3.50;;;;;;;;;;5006643;28;20536;-89
2024/02/20 02:17:40;;;;;;;3.28;2.97;;;;;;;;;;5008191;28;20050;-89
2024/02/20 02:20:08;;;;;;;6.18;2.90;;;;;;;;;;5003472;28;20046;-88
2024/02/20 02:22:36;;;;;;;5.00;3.22;;;;;;;;;;5003811;28;20054;-89
2024/02/20 02:25:03;;;;;;;4.32;3.20;;;;;;;;;;5010049;28;20064;-89
2024/02/20 02:27:31;;;;;;;6.55;2.88;;;;;;;;;;5018719;28;20054;-89
2024/02/20 02:29:58;;;;;;;4.40;3.30;;;;;;;;;;5008322;28;20132;-89
2024/02/20 02:32:25;;;;;;;3.25;2.92;;;;;;;;;;4999512;28;20058;-90
2024/02/20 02:34:52;;;;;;;4.65;3.30;;;;;;;;;;5006537;28;20072;-90
2024/02/20 02:37:20;;;;;;;7.55;3.58;;;;;;;;;;5010639;28;20133;-90
2024/02/20 02:39:47;;;;;;;5.10;3.30;;;;;;;;;;5002792;28;20062;-90
2024/02/20 02:42:14;;;;;;;2.90;2.65;;;;;;;;;;5002653;28;20112;-89
2024/02/20 02:44:43;;;;;;;4.82;3.42;;;;;;;;;;5003132;28;20050;-90
2024/02/20 02:47:11;;;;;;;4.78;3.13;;;;;;;;;;5013320;28;20061;-90
2024/02/20 02:49:38;;;;;;;6.22;3.30;;;;;;;;;;5008111;28;20480;-89
2024/02/20 02:52:06;;;;;;;4.93;3.38;;;;;;;;;;5001055;28;20439;-89
2024/02/20 02:54:33;;;;;;;5.75;3.08;;;;;;;;;;5002589;28;20145;-89
2024/02/20 02:57:00;;;;;;;5.75;3.15;;;;;;;;;;5002727;28;20054;-89
2024/02/20 02:59:27;;;;;;;4.15;3.20;;;;;;;;;;5002649;28;20050;-90
2024/02/20 03:01:54;;;;;;;8.05;3.40;;;;;;;;;;5009452;28;20475;-89
2024/02/20 03:04:22;;;;;;;3.97;2.60;;;;;;;;;;5002458;28;20073;-89
2024/02/20 03:06:50;;;;;;;8.15;4.57;;;;;;;;;;5002169;28;20050;-89
2024/02/20 03:09:18;;;;;;;8.57;4.68;;;;;;;;;;5002223;28;20101;-89
2024/02/20 03:11:45;;;;;;;4.45;4.00;;;;;;;;;;5002407;28;20062;-89
2024/02/20 03:14:13;;;;;;;31.50;17.67;;;;;;;;;;5002309;28;20085;-89
2024/02/20 03:16:41;;;;;;;58.40;33.90;;;;;;;;;;5002212;28;20129;-90
2024/02/20 03:19:08;;;;;;;46.83;23.73;;;;;;;;;;5001834;28;20138;-90
2024/02/20 03:21:39;;;;;;;24.27;13.70;;;;;;;;;;5007821;28;20522;-89
2024/02/20 03:24:06;;;;;;;12.02;7.97;;;;;;;;;;5014006;28;20053;-89
2024/02/20 03:26:33;;;;;;;50.60;27.58;;;;;;;;;;5008102;28;20054;-90
2024/02/20 03:29:01;;;;;;;31.10;17.73;;;;;;;;;;5002710;28;20042;-90
2024/02/20 03:31:29;;;;;;;30.23;18.88;;;;;;;;;;5008698;28;20069;-90
2024/02/20 03:33:56;;;;;;;6.38;5.60;;;;;;;;;;5001875;28;20097;-90
2024/02/20 03:36:24;;;;;;;17.00;13.02;;;;;;;;;;5001998;28;20077;-90
2024/02/20 03:38:51;;;;;;;24.02;17.05;;;;;;;;;;5003004;28;20580;-90
2024/02/20 03:41:18;;;;;;;21.17;16.98;;;;;;;;;;5017976;28;20061;-90
2024/02/20 03:43:46;;;;;;;40.75;32.78;;;;;;;;;;5009182;28;20046;-90
2024/02/20 03:46:13;;;;;;;17.92;16.05;;;;;;;;;;5004925;28;20061;-90
2024/02/20 03:48:40;;;;;;;16.35;12.50;;;;;;;;;;5006730;28;20518;-91
2024/02/20 03:51:08;;;;;;;7.72;6.68;;;;;;;;;;5004013;28;20046;-90
2024/02/20 03:53:35;;;;;;;10.32;5.72;;;;;;;;;;5007599;28;20047;-90
2024/02/20 03:56:02;;;;;;;9.27;8.02;;;;;;;;;;5001947;28;20069;-89
2024/02/20 03:58:30;;;;;;;3.67;3.08;;;;;;;;;;5006876;28;20049;-89
2024/02/20 04:00:57;;;;;;;4.45;2.70;;;;;;;;;;5004746;28;20054;-90
2024/02/20 04:03:24;;;;;;;2.50;2.40;;;;;;;;;;5008846;28;20054;-90
2024/02/20 04:05:52;;;;;;;8.25;7.65;;;;;;;;;;5001802;28;20557;-90
2024/02/20 04:08:19;;;;;;;5.10;4.60;;;;;;;;;;5001201;28;20102;-90
2024/02/20 04:10:46;;;;;;;4.55;4.15;;;;;;;;;;5001678;28;20112;-89
2024/02/20 04:13:14;;;;;;;7.75;4.97;;;;;;;;;;5001460;28;20091;-90
2024/02/20 04:15:41;;;;;;;6.40;5.78;;;;;;;;;;5007968;28;20050;-89
2024/02/20 04:18:09;;;;;;;8.10;5.40;;;;;;;;;;5004826;28;20133;-90
2024/02/20 04:20:36;;;;;;;3.22;2.95;;;;;;;;;;5009750;28;20124;-90
2024/02/20 04:23:06;;;;;;;5.60;2.58;;;;;;;;;;5011040;28;20088;-90
2024/02/20 04:25:34;;;;;;;6.07;3.00;;;;;;;;;;5013179;28;20056;-90
2024/02/20 04:28:01;;;;;;;7.90;6.20;;;;;;;;;;5012448;28;20068;-89
2024/02/20 04:30:28;;;;;;;6.43;5.82;;;;;;;;;;5007891;28;20077;-90
2024/02/20 04:32:56;;;;;;;7.95;2.72;;;;;;;;;;5001439;28;20050;-90
2024/02/20 04:35:23;;;;;;;11.68;10.13;;;;;;;;;;5001420;28;20050;-90
2024/02/20 04:37:50;;;;;;;5.28;2.65;;;;;;;;;;5001430;28;20058;-90
2024/02/20 04:40:18;;;;;;;4.93;2.80;;;;;;;;;;5004651;28;20061;-90
2024/02/20 04:42:45;;;;;;;7.28;4.63;;;;;;;;;;5005767;28;20426;-90
2024/02/20 04:45:13;;;;;;;5.25;3.30;;;;;;;;;;5011987;28;20112;-90
2024/02/20 04:47:40;;;;;;;2.95;2.67;;;;;;;;;;5006313;28;20054;-90
2024/02/20 04:50:07;;;;;;;4.65;2.83;;;;;;;;;;5001245;28;20050;-90
2024/02/20 04:52:35;;;;;;;4.07;2.58;;;;;;;;;;5001395;28;20065;-91
2024/02/20 04:55:02;;;;;;;3.03;2.40;;;;;;;;;;5022566;28;20061;-90
2024/02/20 04:57:30;;;;;;;9.85;3.10;;;;;;;;;;5005093;28;20053;-90
2024/02/20 04:59:58;;;;;;;6.35;3.88;;;;;;;;;;5001281;28;20081;-90
2024/02/20 05:02:26;;;;;;;8.88;4.38;;;;;;;;;;5000665;28;20451;-91
2024/02/20 05:04:53;;;;;;;9.60;5.43;;;;;;;;;;5001002;28;20439;-91
2024/02/20 05:07:23;;;;;;;8.95;5.75;;;;;;;;;;5000713;28;20077;-91
2024/02/20 05:09:50;;;;;;;9.95;7.50;;;;;;;;;;5009031;28;20549;-91
2024/02/20 05:12:19;;;;;;;10.05;6.25;;;;;;;;;;5002778;28;20053;-91
2024/02/20 05:14:49;;;;;;;8.48;5.20;;;;;;;;;;5012336;28;20096;-91
2024/02/20 05:17:17;;;;;;;4.97;2.97;;;;;;;;;;5011959;28;20483;-91
2024/02/20 05:19:44;;;;;;;2.90;2.45;;;;;;;;;;5005444;28;20146;-90
2024/02/20 05:22:13;;;;;;;3.53;2.67;;;;;;;;;;5000359;28;20069;-91
2024/02/20 05:24:42;;;;;;;6.55;4.22;;;;;;;;;;5002166;28;20051;-91
2024/02/20 05:27:10;;;;;;;7.45;3.70;;;;;;;;;;5006698;28;20077;-91
2024/02/20 05:29:37;;;;;;;6.18;2.30;;;;;;;;;;5009515;28;20081;-91
2024/02/20 05:32:04;;;;;;;3.92;2.45;;;;;;;;;;5004398;28;20121;-91
2024/02/20 05:34:31;;;;;;;4.57;2.47;;;;;;;;;;5004194;28;20043;-90
2024/02/20 05:36:59;;;;;;;4.57;2.40;;;;;;;;;;5012303;28;20046;-91
2024/02/20 05:39:26;;;;;;;6.20;2.42;;;;;;;;;;5005888;28;20054;-90
2024/02/20 05:41:53;;;;;;;5.82;2.45;;;;;;;;;;5001020;28;20140;-91
2024/02/20 05:44:21;;;;;;;2.53;2.20;;;;;;;;;;5004934;28;20046;-91
2024/02/20 05:46:48;;;;;;;5.45;3.05;;;;;;;;;;5011988;28;20469;-91
2024/02/20 05:49:15;;;;;;;40.28;9.10;;;;;;;;;;5006977;28;20046;-90
2024/02/20 05:51:43;;;;;;;34.65;10.30;;;;;;;;;;5008861;28;20050;-91
2024/02/20 05:54:10;;;;;;;26.50;6.68;;;;;;;;;;5004216;28;20105;-91
2024/02/20 05:56:37;;;;;;;13.85;4.53;;;;;;;;;;5004126;28;20058;-92
2024/02/20 05:59:05;;;;;;;13.20;3.80;;;;;;;;;;5005499;28;20454;-90
2024/02/20 06:01:32;;;;;;;11.32;4.28;;;;;;;;;;5009668;28;20105;-89
2024/02/20 06:04:04;;;;;;;40.17;8.57;;;;;;;;;;5010154;28;20197;-90
2024/02/20 06:06:34;;;;;;;57.85;13.07;;;;;;;;;;5010660;28;20054;-90
2024/02/20 06:09:02;;;;;;;40.13;8.85;;;;;;;;;;5015984;28;20049;-91
2024/02/20 06:11:30;;;;;;;39.40;10.55;;;;;;;;;;5010544;28;20058;-90
2024/02/20 06:13:57;;;;;;;53.17;13.95;;;;;;;;;;5003824;28;20046;-90
2024/02/20 06:16:25;;;;;;;51.00;13.13;;;;;;;;;;5008028;28;20084;-90
2024/02/20 06:18:54;;;;;;;35.85;8.60;;;;;;;;;;5014774;28;20128;-90
2024/02/20 06:21:22;;;;;;;6.55;3.38;;;;;;;;;;5007408;28;20057;-90
2024/02/20 06:23:49;;;;;;;5.85;1.98;;;;;;;;;;5007298;28;20066;-90
2024/02/20 06:26:20;;;;;;;2.40;1.33;;;;;;;;;;5011098;28;20043;-90
2024/02/20 06:28:47;;;;;;;31.48;8.45;;;;;;;;;;4998255;28;20404;-90
2024/02/20 06:31:15;;;;;;;4.50;1.60;;;;;;;;;;5011481;28;20057;-90
2024/02/20 06:33:42;;;;;;;3.38;1.50;;;;;;;;;;5006804;28;20050;-90
2024/02/20 06:36:10;;;;;;;4.80;0.82;;;;;;;;;;5002008;28;20054;-92
2024/02/20 06:38:37;;;;;;;2.30;1.00;;;;;;;;;;5003036;28;20062;-90
2024/02/20 06:41:05;;;;;;;2.30;0.73;;;;;;;;;;5003371;28;20054;-91
2024/02/20 06:43:32;;;;;;;5.05;1.00;;;;;;;;;;5002749;28;20062;-91
2024/02/20 06:46:01;;;;;;;5.00;1.88;;;;;;;;;;5004180;28;20054;-90
2024/02/20 06:48:29;;;;;;;2.25;1.10;;;;;;;;;;5009549;28;20046;-91
2024/02/20 06:50:56;;;;;;;4.13;1.40;;;;;;;;;;5007943;28;20054;-92
2024/02/20 06:53:23;;;;;;;5.00;1.63;;;;;;;;;;5002833;28;20515;-91
2024/02/20 06:55:50;;;;;;;5.72;1.48;;;;;;;;;;5002708;28;20104;-91
2024/02/20 06:58:17;;;;;;;10.70;2.50;;;;;;;;;;5010725;28;20058;-91
2024/02/20 07:00:45;;;;;;;4.30;1.20;;;;;;;;;;5001672;28;20049;-91
2024/02/20 07:03:12;;;;;;;7.07;1.77;;;;;;;;;;5003331;28;20062;-91
2024/02/20 07:05:39;;;;;;;22.30;5.45;;;;;;;;;;5008895;28;20553;-91
2024/02/20 07:08:07;;;;;;;11.70;3.50;;;;;;;;;;5013306;28;20112;-91
2024/02/20 07:10:34;;;;;;;16.95;4.57;;;;;;;;;;5008460;28;20470;-91
2024/02/20 07:13:02;;;;;;;24.92;7.85;;;;;;;;;;5002997;28;20069;-92
2024/02/20 07:15:30;;;;;;;26.95;7.00;;;;;;;;;;5002473;28;20101;-92
2024/02/20 07:17:57;;;;;;;7.70;2.30;;;;;;;;;;5001998;28;20101;-92
2024/02/20 07:20:25;;;;;;;10.30;2.50;;;;;;;;;;5002279;28;20054;-92
2024/02/20 07:22:52;;;;;;;5.18;1.50;;;;;;;;;;5002541;28;20050;-92
2024/02/20 07:25:22;;;;;;;6.70;1.98;;;;;;;;;;5018128;28;20364;-92
2024/02/20 07:27:49;;;;;;;10.30;2.90;;;;;;;;;;5009701;28;20112;-92
2024/02/20 07:30:17;;;;;;;12.13;3.67;;;;;;;;;;5005232;28;20092;-92
2024/02/20 07:32:44;;;;;;;9.60;2.88;;;;;;;;;;5006194;28;20490;-92
2024/02/20 07:35:12;;;;;;;17.30;5.13;;;;;;;;;;5001909;28;20054;-91
2024/02/20 07:37:41;;;;;;;16.33;3.88;;;;;;;;;;5008238;28;20045;-92
2024/02/20 07:40:09;;;;;;;10.23;3.60;;;;;;;;;;5005347;28;20080;-92
2024/02/20 07:42:38;;;;;;;7.38;1.90;;;;;;;;;;5007415;28;20072;-94
2024/02/20 07:45:06;;;;;;;5.07;1.75;;;;;;;;;;5011932;28;20073;-93
2024/02/20 07:47:34;;;;;;;12.23;2.40;;;;;;;;;;5013268;28;20050;-92
2024/02/20 07:50:03;;;;;;;8.52;1.70;;;;;;;;;;5004948;28;20487;-93
2024/02/20 07:52:31;;;;;;;10.40;2.20;;;;;;;;;;5008562;28;20403;-93
2024/02/20 07:54:59;;;;;;;9.98;2.45;;;;;;;;;;5003835;28;20054;-92
2024/02/20 07:57:27;;;;;;;11.50;2.10;;;;;;;;;;5006132;28;20049;-93
2024/02/20 07:59:54;;;;;;;11.50;2.92;;;;;;;;;;5013622;28;20133;-91
2024/02/20 08:02:21;;;;;;;11.20;4.00;;;;;;;;;;5009342;28;20526;-93
2024/02/20 08:04:49;;;;;;;8.77;2.90;;;;;;;;;;5001615;28;20340;-92
2024/02/20 08:07:16;;;;;;;7.90;2.33;;;;;;;;;;5002657;28;20066;-93
2024/02/20 08:09:44;;;;;;;8.35;2.17;;;;;;;;;;5003188;28;20046;-92
2024/02/20 08:12:11;;;;;;;7.55;1.70;;;;;;;;;;5008852;28;20546;-93
2024/02/20 08:14:38;;;;;;;5.70;1.30;;;;;;;;;;5002766;28;20097;-92
2024/02/20 08:17:06;;;;;;;2.22;0.90;;;;;;;;;;5011749;28;20053;-93
2024/02/20 08:19:33;;;;;;;7.63;1.40;;;;;;;;;;5007703;28;20125;-93
2024/02/20 08:22:01;;;;;;;6.35;1.17;;;;;;;;;;5003528;28;20109;-93
2024/02/20 08:24:28;;;;;;;5.05;1.00;;;;;;;;;;5008786;28;20494;-92
2024/02/20 08:26:57;;;;;;;6.28;1.27;;;;;;;;;;5007352;28;20051;-92
2024/02/20 08:29:30;;;;;;;5.40;1.30;;;;;;;;;;5026802;28;20053;-95
2024/02/20 08:32:22;;;;;;;5.72;0.90;;;;;;;;;;5027655;28;20091;-96
2024/02/20 08:34:49;;;;;;;4.72;1.40;;;;;;;;;;5001192;28;20053;-93
2024/02/20 08:37:16;;;;;;;6.07;1.80;;;;;;;;;;5013290;28;20110;-92
2024/02/20 08:39:44;;;;;;;6.20;1.50;;;;;;;;;;5023921;28;20054;-92
2024/02/20 08:42:15;;;;;;;11.57;1.73;;;;;;;;;;5002670;28;20422;-92
2024/02/20 08:44:42;;;;;;;13.57;7.10;;;;;;;;;;5001420;28;20062;-93
2024/02/20 08:47:09;;;;;;;6.30;1.77;;;;;;;;;;5009578;28;20085;-92
2024/02/20 08:49:36;;;;;;;6.55;1.58;;;;;;;;;;5008887;28;20046;-91
2024/02/20 08:52:04;;;;;;;8.48;2.08;;;;;;;;;;5004960;28;20101;-92
2024/02/20 08:54:32;;;;;;;6.85;2.10;;;;;;;;;;5009834;28;20483;-94
2024/02/20 08:56:59;;;;;;;6.93;1.33;;;;;;;;;;5001476;28;20112;-91
2024/02/20 08:59:26;;;;;;;6.53;1.35;;;;;;;;;;5002874;28;20047;-93
2024/02/20 09:01:53;;;;;;;5.95;1.50;;;;;;;;;;5010401;28;20050;-92
2024/02/20 09:04:23;;;;;;;11.68;1.80;;;;;;;;;;5009247;28;20090;-93
2024/02/20 09:06:50;;;;;;;10.07;2.30;;;;;;;;;;5016917;28;20134;-92
2024/02/20 09:09:18;;;;;;;6.93;1.63;;;;;;;;;;5017083;28;20240;-92
2024/02/20 09:11:45;;;;;;;6.40;1.73;;;;;;;;;;5009749;28;20061;-92
2024/02/20 09:14:13;;;;;;;9.25;2.30;;;;;;;;;;5005278;28;20097;-91
2024/02/20 09:16:40;;;;;;;6.55;1.70;;;;;;;;;;5005427;28;20054;-93
2024/02/20 09:19:08;;;;;;;9.80;1.75;;;;;;;;;;5013772;28;20081;-91
2024/02/20 09:21:35;;;;;;;8.13;1.77;;;;;;;;;;5013451;28;20042;-91
2024/02/20 09:24:03;;;;;;;6.40;1.92;;;;;;;;;;5005184;28;20050;-92
2024/02/20 09:26:31;;;;;;;6.13;1.55;;;;;;;;;;5005206;28;20487;-92
2024/02/20 09:28:58;;;;;;;6.03;1.63;;;;;;;;;;5005079;28;20050;-88
2024/02/20 09:31:25;;;;;;;10.68;2.53;;;;;;;;;;5003723;28;20062;-91
2024/02/20 09:33:52;;;;;;;6.28;1.70;;;;;;;;;;5001017;28;20105;-91
2024/02/20 09:36:20;;;;;;;9.68;2.20;;;;;;;;;;5015996;28;20402;-91
2024/02/20 09:38:47;;;;;;;3.88;1.55;;;;;;;;;;5008604;28;20061;-92
2024/02/20 09:41:22;;;;;;;8.52;1.85;;;;;;;;;;5015662;28;20069;-92
2024/02/20 09:43:50;;;;;;;5.32;1.85;;;;;;;;;;5008260;28;20050;-89
2024/02/20 09:46:20;;;;;;;6.18;1.90;;;;;;;;;;5012289;28;20096;-89
2024/02/20 09:48:49;;;;;;;10.52;2.42;;;;;;;;;;5004303;28;20055;-89
2024/02/20 09:51:20;;;;;;;10.05;2.10;;;;;;;;;;5004113;28;20443;-88
2024/02/20 09:53:49;;;;;;;10.02;1.83;;;;;;;;;;5024375;28;20063;-88
2024/02/20 09:56:18;;;;;;;6.00;1.70;;;;;;;;;;5006069;28;20497;-89
2024/02/20 09:58:46;;;;;;;8.88;2.25;;;;;;;;;;5004359;28;20129;-89
2024/02/20 10:01:14;;;;;;;8.57;2.15;;;;;;;;;;5003490;28;20089;-89
2024/02/20 10:03:43;;;;;;;8.00;1.90;;;;;;;;;;5003831;28;20057;-88
2024/02/20 10:06:14;;;;;;;11.45;2.22;;;;;;;;;;5006155;28;20116;-87
2024/02/20 10:08:41;;;;;;;9.40;2.00;;;;;;;;;;5008218;28;20058;-90
2024/02/20 10:11:09;;;;;;;10.75;2.22;;;;;;;;;;5013982;28;20057;-90
2024/02/20 10:13:43;;;;;;;9.85;1.88;;;;;;;;;;5008313;28;20050;-89
2024/02/20 10:16:16;;;;;;;9.02;2.03;;;;;;;;;;5010942;28;20054;-88
2024/02/20 10:18:44;;;;;;;9.07;1.95;;;;;;;;;;5003756;28;20137;-88
2024/02/20 10:21:13;;;;;;;6.72;1.60;;;;;;;;;;5006123;28;20503;-88
2024/02/20 10:23:41;;;;;;;7.57;1.63;;;;;;;;;;5008366;28;20411;-89
2024/02/20 10:26:11;;;;;;;6.50;1.95;;;;;;;;;;5005739;28;20054;-88
2024/02/20 10:28:39;;;;;;;8.40;2.08;;;;;;;;;;5008866;28;20104;-89
2024/02/20 10:31:06;;;;;;;6.55;2.05;;;;;;;;;;5010183;28;20056;-90
2024/02/20 10:33:34;;;;;;;5.18;1.77;;;;;;;;;;5003758;28;20058;-87
2024/02/20 10:36:05;;;;;;;6.05;1.55;;;;;;;;;;5003184;28;20451;-88
2024/02/20 10:38:32;;;;;;;6.95;1.88;;;;;;;;;;5002956;28;20058;-88
2024/02/20 10:41:00;;;;;;;6.72;2.00;;;;;;;;;;5004072;28;20050;-88
2024/02/20 10:43:28;;;;;;;11.73;2.00;;;;;;;;;;4993596;28;20462;-90
2024/02/20 10:45:56;;;;;;;8.55;2.08;;;;;;;;;;5012305;28;20128;-90
2024/02/20 10:48:30;;;;;;;9.85;1.63;;;;;;;;;;5003795;28;20050;-89
2024/02/20 10:50:59;;;;;;;10.05;2.25;;;;;;;;;;5002584;28;20543;-91
2024/02/20 10:53:27;;;;;;;8.82;1.90;;;;;;;;;;5002922;28;20113;-90
2024/02/20 10:55:56;;;;;;;6.82;1.67;;;;;;;;;;5002807;28;20557;-90
2024/02/20 10:58:24;;;;;;;11.27;1.98;;;;;;;;;;5002663;28;20085;-90
2024/02/20 11:00:52;;;;;;;11.77;2.25;;;;;;;;;;5003147;28;20108;-90
2024/02/20 11:03:20;;;;;;;12.15;2.25;;;;;;;;;;5002467;28;20483;-90
2024/02/20 11:05:51;;;;;;;8.85;2.33;;;;;;;;;;5002558;28;20050;-90
2024/02/20 11:08:25;;;;;;;8.27;1.95;;;;;;;;;;5022372;28;20114;-91
2024/02/20 11:10:52;;;;;;;;;;;;;;;;;;5008577;28;20050;-88
2024/02/20 11:13:28;;;;;;;10.02;1.90;;;;;;;;;;4998016;28;19921;-92
2024/02/20 11:15:56;;;;;;;10.15;2.30;;;;;;;;;;5006003;28;20474;-91
2024/02/20 11:18:24;;;;;;;7.53;2.35;;;;;;;;;;5013894;28;20077;-91
2024/02/20 11:21:02;;;;;;;8.20;2.35;;;;;;;;;;5005860;28;20050;-91
2024/02/20 11:23:30;;;;;;;8.20;1.92;;;;;;;;;;5001310;28;20515;-91
2024/02/20 11:26:08;;;;;;;9.95;2.08;;;;;;;;;;5001811;28;20046;-91
2024/02/20 11:28:36;;;;;;;9.00;2.10;;;;;;;;;;5008110;28;20414;-91
2024/02/20 11:31:04;;;;;;;7.50;2.35;;;;;;;;;;5005795;28;20050;-91
2024/02/20 11:33:32;;;;;;;11.63;2.08;;;;;;;;;;5014730;28;20152;-92
2024/02/20 11:35:59;;;;;;;10.43;3.10;;;;;;;;;;5006588;28;20061;-90
2024/02/20 11:38:30;;;;;;;9.70;2.05;;;;;;;;;;5008648;28;20403;-91
2024/02/20 11:40:57;;;;;;;15.00;3.60;;;;;;;;;;5007435;28;20081;-91
2024/02/20 11:43:27;;;;;;;10.23;2.33;;;;;;;;;;5001583;28;20499;-92
2024/02/20 11:46:02;;;;;;;11.50;1.73;;;;;;;;;;5010206;28;20144;-90
2024/02/20 11:48:31;;;;;;;11.40;1.98;;;;;;;;;;5010065;28;20043;-91
2024/02/20 11:51:00;;;;;;;9.93;2.03;;;;;;;;;;5001793;28;20104;-91
2024/02/20 11:53:28;;;;;;;8.85;1.75;;;;;;;;;;5006470;28;20056;-91
2024/02/20 11:55:56;;;;;;;10.65;2.03;;;;;;;;;;5014051;28;20192;-91
2024/02/20 11:58:24;;;;;;;5.05;1.40;;;;;;;;;;5013854;28;20491;-90
2024/02/20 12:01:02;;;;;;;14.60;2.38;;;;;;;;;;5005171;28;20061;-91
2024/02/20 12:03:33;;;;;;;12.10;2.13;;;;;;;;;;5008204;28;20137;-91
2024/02/20 12:06:02;;;;;;;10.50;2.22;;;;;;;;;;5007276;28;20046;-90
2024/02/20 12:08:53;;;;;;;11.88;2.55;;;;;;;;;;5000911;28;20058;-91
2024/02/20 12:11:22;;;;;;;9.50;2.38;;;;;;;;;;5001679;28;20070;-90
2024/02/20 12:13:53;;;;;;;10.63;2.70;;;;;;;;;;5008698;28;20050;-91
2024/02/20 12:16:22;;;;;;;13.55;2.05;;;;;;;;;;5009232;28;20085;-91
2024/02/20 12:18:51;;;;;;;14.77;2.67;;;;;;;;;;5001322;28;20101;-90
2024/02/20 12:21:23;;;;;;;17.33;2.63;;;;;;;;;;5010447;28;20056;-91
2024/02/20 12:23:57;;;;;;;13.00;2.20;;;;;;;;;;5017539;28;20061;-91
2024/02/20 12:26:25;;;;;;;11.50;2.28;;;;;;;;;;5001318;28;20116;-91
2024/02/20 12:28:54;;;;;;;9.63;2.42;;;;;;;;;;5001325;28;20141;-90
2024/02/20 12:31:30;;;;;;;8.98;1.92;;;;;;;;;;5001162;28;20078;-93
2024/02/20 12:33:59;;;;;;;11.55;2.03;;;;;;;;;;5000596;28;20050;-91
2024/02/20 12:36:29;;;;;;;12.45;2.00;;;;;;;;;;5002622;28;20054;-92
2024/02/20 12:38:58;;;;;;;13.35;1.83;;;;;;;;;;5005697;28;20113;-90
2024/02/20 12:41:26;;;;;;;10.45;2.08;;;;;;;;;;5001140;28;20046;-89
2024/02/20 12:43:53;;;;;;;8.27;2.17;;;;;;;;;;5005619;28;20054;-90
2024/02/20 12:46:21;;;;;;;6.72;1.77;;;;;;;;;;5001326;28;20210;-90
2024/02/20 12:48:55;;;;;;;11.05;2.00;;;;;;;;;;5008907;28;20058;-90
2024/02/20 12:51:24;;;;;;;7.05;1.40;;;;;;;;;;5005532;28;20104;-91
2024/02/20 12:53:51;;;;;;;8.32;1.90;;;;;;;;;;5004852;28;20050;-90
2024/02/20 12:56:18;;;;;;;6.05;1.67;;;;;;;;;;5000896;28;20137;-92
2024/02/20 12:58:46;;;;;;;7.88;1.45;;;;;;;;;;5009034;28;20052;-91
2024/02/20 13:01:14;;;;;;;12.35;2.00;;;;;;;;;;5005370;28;20144;-91
2024/02/20 13:03:42;;;;;;;9.13;2.17;;;;;;;;;;5009485;28;20054;-91
2024/02/20 13:06:10;;;;;;;7.10;2.03;;;;;;;;;;5001891;28;20077;-90
2024/02/20 13:08:37;;;;;;;8.05;1.83;;;;;;;;;;5003390;28;20066;-91
2024/02/20 13:11:09;;;;;;;8.02;2.13;;;;;;;;;;5010305;28;20061;-90
2024/02/20 13:13:38;;;;;;;9.43;1.98;;;;;;;;;;5013432;28;20124;-91
2024/02/20 13:16:06;;;;;;;15.38;2.28;;;;;;;;;;5005355;28;20058;-92
2024/02/20 13:18:33;;;;;;;10.35;2.13;;;;;;;;;;5012629;28;20045;-91
2024/02/20 13:21:05;;;;;;;9.32;2.03;;;;;;;;;;5004228;28;20459;-90
2024/02/20 13:23:32;;;;;;;10.23;2.42;;;;;;;;;;5007387;28;20050;-91
2024/02/20 13:25:59;;;;;;;9.40;2.33;;;;;;;;;;5007590;28;20054;-90
2024/02/20 13:28:26;;;;;;;13.20;2.42;;;;;;;;;;5007775;28;20137;-88
2024/02/20 13:30:54;;;;;;;6.78;1.98;;;;;;;;;;5005915;28;20050;-89
2024/02/20 13:33:21;;;;;;;10.13;2.60;;;;;;;;;;5000839;28;20046;-89
2024/02/20 13:35:49;;;;;;;8.63;1.77;;;;;;;;;;5000893;28;20059;-90
2024/02/20 13:38:17;;;;;;;9.00;1.85;;;;;;;;;;5029430;28;20056;-90
2024/02/20 13:40:45;;;;;;;8.57;2.15;;;;;;;;;;5006555;28;20546;-91
2024/02/20 13:43:12;;;;;;;6.78;2.05;;;;;;;;;;5000969;28;20050;-90
2024/02/20 13:45:47;;;;;;;9.70;2.10;;;;;;;;;;5002394;28;20060;-91
2024/02/20 13:48:17;;;;;;;17.48;3.17;;;;;;;;;;5007094;28;20052;-91
2024/02/20 13:50:45;;;;;;;9.15;1.80;;;;;;;;;;5016026;28;20058;-89
2024/02/20 13:53:21;;;;;;;13.00;2.17;;;;;;;;;;5012652;28;20058;-91
2024/02/20 13:55:49;;;;;;;9.88;2.20;;;;;;;;;;5004484;28;20077;-91
2024/02/20 13:58:17;;;;;;;7.97;1.83;;;;;;;;;;5007436;28;20062;-90
2024/02/20 14:00:45;;;;;;;8.45;2.35;;;;;;;;;;5008690;28;20415;-91
2024/02/20 14:03:15;;;;;;;9.38;2.38;;;;;;;;;;5006743;28;20061;-90
2024/02/20 14:05:43;;;;;;;12.60;2.03;;;;;;;;;;5009496;28;20089;-90
2024/02/20 14:08:11;;;;;;;9.02;1.85;;;;;;;;;;5007269;28;20066;-91
2024/02/20 14:10:38;;;;;;;9.88;2.10;;;;;;;;;;5010066;28;20108;-91
2024/02/20 14:13:07;;;;;;;12.57;2.60;;;;;;;;;;5005775;28;20042;-91
2024/02/20 14:15:34;;;;;;;8.70;1.90;;;;;;;;;;5010429;28;20090;-91
2024/02/20 14:18:01;;;;;;;9.80;2.13;;;;;;;;;;5010111;28;20042;-91
2024/02/20 14:20:30;;;;;;;10.68;2.13;;;;;;;;;;5009048;28;20110;-91
2024/02/20 14:22:59;;;;;;;10.38;2.33;;;;;;;;;;5007761;28;20523;-91
2024/02/20 14:25:26;;;;;;;8.50;1.73;;;;;;;;;;5011231;28;20057;-91
2024/02/20 14:27:56;;;;;;;8.50;1.88;;;;;;;;;;5004416;28;20090;-90
2024/02/20 14:30:24;;;;;;;10.32;2.20;;;;;;;;;;5004604;28;20081;-92
2024/02/20 14:32:51;;;;;;;10.02;2.08;;;;;;;;;;5004424;28;20050;-92
2024/02/20 14:35:18;;;;;;;12.45;2.20;;;;;;;;;;5004351;28;20050;-91
2024/02/20 14:37:46;;;;;;;9.63;2.25;;;;;;;;;;5003970;28;20158;-91
2024/02/20 14:40:13;;;;;;;9.88;2.47;;;;;;;;;;5015253;28;20692;-89
2024/02/20 14:42:41;;;;;;;8.85;2.13;;;;;;;;;;5014492;28;20046;-92
2024/02/20 14:45:08;;;;;;;14.70;2.55;;;;;;;;;;5019314;28;20108;-90